createdAt,value
2017-02-12T00:01:05.021Z,0
2017-02-12T00:02:19.372Z,0
2017-02-12T00:03:33.745Z,0
2017-02-12T00:04:48.116Z,0
2017-02-12T00:06:02.527Z,0
2017-02-12T00:07:16.911Z,0
2017-02-12T00:08:31.262Z,0
2017-02-12T00:09:45.004Z,0
2017-02-12T00:10:59.413Z,0
2017-02-12T00:12:13.189Z,0
2017-02-12T00:13:27.577Z,0
2017-02-12T00:14:41.926Z,0
2017-02-12T00:15:56.297Z,0
2017-02-12T00:17:10.730Z,0
2017-02-12T00:18:25.121Z,0
2017-02-12T00:19:39.468Z,0
2017-02-12T00:20:53.867Z,0
2017-02-12T00:22:08.245Z,0
2017-02-12T00:23:22.006Z,0
2017-02-12T00:24:36.373Z,0
2017-02-12T00:25:50.759Z,0
2017-02-12T00:27:05.117Z,0
2017-02-12T00:28:18.211Z,0
2017-02-12T00:29:32.585Z,0
2017-02-12T00:30:46.308Z,0
2017-02-12T00:32:00.686Z,0
2017-02-12T00:33:14.406Z,0
2017-02-12T00:34:28.761Z,0
2017-02-12T00:35:43.143Z,0
2017-02-12T00:36:56.877Z,0
2017-02-12T00:38:11.249Z,0
2017-02-12T00:39:25.636Z,0
2017-02-12T00:40:40.061Z,0
2017-02-12T00:41:54.402Z,0
2017-02-12T00:43:08.781Z,0
2017-02-12T00:44:22.502Z,0
2017-02-12T00:45:36.845Z,0
2017-02-12T00:46:51.247Z,0
2017-02-12T00:48:05.635Z,0
2017-02-12T00:49:19.385Z,0
2017-02-12T00:50:33.761Z,0
2017-02-12T00:51:48.117Z,0
2017-02-12T00:53:02.472Z,0
2017-02-12T00:54:16.179Z,0
2017-02-12T00:55:30.551Z,0
2017-02-12T00:56:44.920Z,0
2017-02-12T00:57:59.333Z,0
2017-02-12T00:59:13.719Z,0
2017-02-12T01:00:27.441Z,0
2017-02-12T01:01:41.787Z,0
2017-02-12T01:02:56.140Z,0
2017-02-12T01:04:10.579Z,0
2017-02-12T01:05:24.931Z,0
2017-02-12T01:06:39.332Z,0
2017-02-12T01:07:53.697Z,0
2017-02-12T01:09:08.159Z,0
2017-02-12T01:10:22.530Z,0
2017-02-12T01:11:36.972Z,0
2017-02-12T01:12:50.687Z,0
2017-02-12T01:14:05.076Z,0
2017-02-12T01:15:18.146Z,0
2017-02-12T01:16:32.499Z,0
2017-02-12T01:17:46.881Z,0
2017-02-12T01:19:01.329Z,0
2017-02-12T01:20:15.050Z,0
2017-02-12T01:21:28.784Z,0
2017-02-12T01:22:42.482Z,0
2017-02-12T01:23:56.857Z,0
2017-02-12T01:25:11.249Z,0
2017-02-12T01:26:25.008Z,0
2017-02-12T01:27:39.397Z,0
2017-02-12T01:28:53.800Z,0
2017-02-12T01:30:08.191Z,0
2017-02-12T01:31:22.658Z,0
2017-02-12T01:32:36.436Z,0
2017-02-12T01:33:50.827Z,0
2017-02-12T01:35:05.187Z,0
2017-02-12T01:36:19.535Z,0
2017-02-12T01:37:33.911Z,0
2017-02-12T01:38:47.664Z,0
2017-02-12T01:40:02.017Z,0
2017-02-12T01:41:16.387Z,0
2017-02-12T01:42:30.749Z,0
2017-02-12T01:43:45.133Z,0
2017-02-12T01:44:59.503Z,0
2017-02-12T01:46:13.870Z,0
2017-02-12T01:47:28.267Z,0
2017-02-12T01:48:42.664Z,0
2017-02-12T01:49:57.060Z,0
2017-02-12T01:51:10.798Z,0
2017-02-12T01:52:24.507Z,0
2017-02-12T01:53:38.841Z,0
2017-02-12T01:54:53.189Z,0
2017-02-12T01:56:07.571Z,0
2017-02-12T01:57:22.003Z,0
2017-02-12T01:58:36.380Z,0
2017-02-12T01:59:50.715Z,0
2017-02-12T02:01:05.044Z,0
2017-02-12T02:02:18.756Z,0
2017-02-12T02:03:33.151Z,0
2017-02-12T02:04:47.478Z,0
2017-02-12T02:06:01.842Z,0
2017-02-12T02:07:16.196Z,0
2017-02-12T02:08:30.580Z,0
2017-02-12T02:09:44.922Z,0
2017-02-12T02:10:59.320Z,0
2017-02-12T02:12:13.694Z,0
2017-02-12T02:13:28.075Z,0
2017-02-12T02:14:42.443Z,0
2017-02-12T02:15:56.807Z,0
2017-02-12T02:17:11.180Z,0
2017-02-12T02:18:25.613Z,0
2017-02-12T02:19:39.949Z,0
2017-02-12T02:20:54.306Z,0
2017-02-12T02:22:08.685Z,0
2017-02-12T02:23:22.419Z,0
2017-02-12T02:24:36.818Z,0
2017-02-12T02:25:51.173Z,0
2017-02-12T02:27:05.516Z,0
2017-02-12T02:28:19.863Z,0
2017-02-12T02:29:34.266Z,0
2017-02-12T02:30:48.648Z,0
2017-02-12T02:32:03.063Z,0
2017-02-12T02:33:16.796Z,0
2017-02-12T02:34:31.173Z,0
2017-02-12T02:35:45.563Z,0
2017-02-12T02:36:59.345Z,0
2017-02-12T02:38:13.100Z,0
2017-02-12T02:39:27.517Z,0
2017-02-12T02:40:41.867Z,0
2017-02-12T02:41:56.234Z,0
2017-02-12T02:43:10.589Z,0
2017-02-12T02:44:24.294Z,0
2017-02-12T02:45:38.671Z,0
2017-02-12T02:46:53.038Z,0
2017-02-12T02:48:07.449Z,0
2017-02-12T02:49:21.797Z,0
2017-02-12T02:50:36.192Z,0
2017-02-12T02:51:50.610Z,0
2017-02-12T02:53:04.965Z,0
2017-02-12T02:54:18.082Z,0
2017-02-12T02:55:32.450Z,0
2017-02-12T02:56:46.790Z,0
2017-02-12T02:58:01.129Z,0
2017-02-12T02:59:15.477Z,0
2017-02-12T03:00:29.862Z,0
2017-02-12T03:01:44.269Z,0
2017-02-12T03:02:58.625Z,0
2017-02-12T03:04:13.018Z,0
2017-02-12T03:05:27.365Z,0
2017-02-12T03:06:41.753Z,0
2017-02-12T03:07:56.155Z,0
2017-02-12T03:09:10.543Z,0
2017-02-12T03:10:24.883Z,0
2017-02-12T03:11:39.231Z,0
2017-02-12T03:12:53.590Z,0
2017-02-12T03:14:07.965Z,0
2017-02-12T03:15:22.318Z,0
2017-02-12T03:16:36.032Z,0
2017-02-12T03:17:49.768Z,0
2017-02-12T03:19:04.137Z,0
2017-02-12T03:20:18.513Z,0
2017-02-12T03:21:32.880Z,0
2017-02-12T03:22:47.228Z,0
2017-02-12T03:24:01.609Z,0
2017-02-12T03:25:15.981Z,0
2017-02-12T03:26:30.377Z,0
2017-02-12T03:27:44.097Z,0
2017-02-12T03:28:58.419Z,0
2017-02-12T03:30:12.799Z,0
2017-02-12T03:31:27.153Z,0
2017-02-12T03:32:40.872Z,0
2017-02-12T03:33:55.253Z,0
2017-02-12T03:35:09.611Z,0
2017-02-12T03:36:23.306Z,0
2017-02-12T03:37:37.646Z,0
2017-02-12T03:38:51.995Z,0
2017-02-12T03:40:06.362Z,0
2017-02-12T03:41:20.083Z,0
2017-02-12T03:42:34.481Z,0
2017-02-12T03:43:48.831Z,0
2017-02-12T03:45:03.187Z,0
2017-02-12T03:46:17.561Z,0
2017-02-12T03:47:31.954Z,0
2017-02-12T03:48:46.303Z,0
2017-02-12T03:49:59.997Z,0
2017-02-12T03:51:13.716Z,0
2017-02-12T03:52:28.120Z,0
2017-02-12T03:53:41.181Z,0
2017-02-12T03:54:55.533Z,0
2017-02-12T03:56:09.295Z,0
2017-02-12T03:57:23.655Z,0
2017-02-12T03:58:38.048Z,0
2017-02-12T03:59:52.390Z,0
2017-02-12T04:01:06.741Z,0
2017-02-12T04:02:21.121Z,0
2017-02-12T04:03:35.476Z,0
2017-02-12T04:04:49.856Z,0
2017-02-12T04:06:04.215Z,0
2017-02-12T04:07:17.312Z,0
2017-02-12T04:08:31.693Z,0
2017-02-12T04:09:46.060Z,0
2017-02-12T04:11:00.479Z,0
2017-02-12T04:12:14.842Z,0
2017-02-12T04:13:29.205Z,0
2017-02-12T04:14:43.570Z,0
2017-02-12T04:15:57.999Z,0
2017-02-12T04:17:12.350Z,0
2017-02-12T04:18:26.739Z,0
2017-02-12T04:19:41.067Z,0
2017-02-12T04:20:55.445Z,0
2017-02-12T04:22:09.816Z,0
2017-02-12T04:23:24.163Z,0
2017-02-12T04:24:38.565Z,0
2017-02-12T04:25:53.001Z,0
2017-02-12T04:27:07.381Z,0
2017-02-12T04:28:21.765Z,0
2017-02-12T04:29:36.135Z,0
2017-02-12T04:30:50.542Z,0
2017-02-12T04:32:04.902Z,0
2017-02-12T04:33:18.611Z,0
2017-02-12T04:34:32.973Z,0
2017-02-12T04:35:47.351Z,0
2017-02-12T04:37:01.725Z,0
2017-02-12T04:38:16.100Z,0
2017-02-12T04:39:30.494Z,0
2017-02-12T04:40:44.863Z,0
2017-02-12T04:41:59.237Z,0
2017-02-12T04:43:19.431Z,0
2017-02-12T04:44:33.809Z,0
2017-02-12T04:45:48.163Z,0
2017-02-12T04:47:02.503Z,0
2017-02-12T04:48:16.272Z,0
2017-02-12T04:49:30.631Z,0
2017-02-12T04:50:45.011Z,0
2017-02-12T04:51:59.366Z,0
2017-02-12T04:53:13.674Z,0
2017-02-12T04:54:28.018Z,0
2017-02-12T04:55:41.714Z,0
2017-02-12T04:56:56.151Z,0
2017-02-12T04:58:10.516Z,0
2017-02-12T04:59:24.912Z,0
2017-02-12T05:00:39.319Z,0
2017-02-12T05:01:53.692Z,0
2017-02-12T05:03:08.030Z,0
2017-02-12T05:04:21.762Z,0
2017-02-12T05:05:36.098Z,0
2017-02-12T05:06:50.425Z,0
2017-02-12T05:08:04.795Z,0
2017-02-12T05:09:18.485Z,0
2017-02-12T05:10:32.852Z,0
2017-02-12T05:11:47.192Z,0
2017-02-12T05:13:01.554Z,0
2017-02-12T05:14:15.272Z,0
2017-02-12T05:15:29.639Z,0
2017-02-12T05:16:44.021Z,0
2017-02-12T05:17:58.391Z,0
2017-02-12T05:19:12.741Z,0
2017-02-12T05:20:26.459Z,0
2017-02-12T05:21:40.795Z,0
2017-02-12T05:22:55.215Z,0
2017-02-12T05:24:09.582Z,0
2017-02-12T05:25:23.931Z,0
2017-02-12T05:26:38.305Z,0
2017-02-12T05:27:52.708Z,0
2017-02-12T05:29:07.080Z,0
2017-02-12T05:30:21.436Z,0
2017-02-12T05:31:35.800Z,0
2017-02-12T05:32:50.180Z,0
2017-02-12T05:34:04.558Z,0
2017-02-12T05:35:18.954Z,0
2017-02-12T05:36:33.327Z,0
2017-02-12T05:37:47.687Z,0
2017-02-12T05:39:01.985Z,0
2017-02-12T05:40:15.681Z,0
2017-02-12T05:41:29.379Z,0
2017-02-12T05:42:43.745Z,0
2017-02-12T05:43:58.116Z,0
2017-02-12T05:45:12.431Z,0
2017-02-12T05:46:26.771Z,0
2017-02-12T05:47:42.318Z,0
2017-02-12T05:48:56.694Z,0
2017-02-12T05:50:11.049Z,0
2017-02-12T05:51:25.406Z,0
2017-02-12T05:52:39.817Z,0
2017-02-12T05:53:54.183Z,0
2017-02-12T05:55:08.545Z,0
2017-02-12T05:56:22.253Z,0
2017-02-12T05:57:36.590Z,0
2017-02-12T05:58:50.937Z,0
2017-02-12T06:00:04.658Z,0
2017-02-12T06:01:19.029Z,0
2017-02-12T06:02:33.360Z,0
2017-02-12T06:03:47.734Z,0
2017-02-12T06:05:02.093Z,0
2017-02-12T06:06:15.803Z,0
2017-02-12T06:07:30.180Z,0
2017-02-12T06:08:44.582Z,0
2017-02-12T06:09:59.052Z,0
2017-02-12T06:11:13.390Z,0
2017-02-12T06:12:27.761Z,0
2017-02-12T06:13:42.130Z,0
2017-02-12T06:14:56.513Z,0
2017-02-12T06:16:10.217Z,0
2017-02-12T06:17:23.932Z,0
2017-02-12T06:18:38.291Z,0
2017-02-12T06:19:52.653Z,0
2017-02-12T06:21:07.038Z,0
2017-02-12T06:22:21.421Z,0
2017-02-12T06:23:35.845Z,0
2017-02-12T06:24:50.197Z,0
2017-02-12T06:26:04.566Z,0
2017-02-12T06:27:17.665Z,0
2017-02-12T06:28:32.040Z,0
2017-02-12T06:29:45.756Z,0
2017-02-12T06:31:00.127Z,0
2017-02-12T06:32:14.480Z,0
2017-02-12T06:33:28.841Z,0
2017-02-12T06:34:43.249Z,0
2017-02-12T06:35:57.623Z,0
2017-02-12T06:37:11.963Z,0
2017-02-12T06:38:26.360Z,0
2017-02-12T06:39:40.775Z,0
2017-02-12T06:40:55.176Z,0
2017-02-12T06:42:09.550Z,0
2017-02-12T06:43:23.889Z,0
2017-02-12T06:44:38.298Z,0
2017-02-12T06:45:51.994Z,0
2017-02-12T06:47:06.362Z,0
2017-02-12T06:48:20.750Z,0
2017-02-12T06:49:35.088Z,0
2017-02-12T06:50:49.444Z,0
2017-02-12T06:52:03.844Z,0
2017-02-12T06:53:17.566Z,0
2017-02-12T06:54:31.930Z,0
2017-02-12T06:55:47.079Z,0
2017-02-12T06:57:01.409Z,0
2017-02-12T06:58:15.169Z,0
2017-02-12T06:59:29.575Z,0
2017-02-12T07:00:43.938Z,0
2017-02-12T07:01:58.261Z,0
2017-02-12T07:03:12.634Z,0
2017-02-12T07:04:26.990Z,0
2017-02-12T07:05:41.313Z,0
2017-02-12T07:06:55.684Z,0
2017-02-12T07:08:10.028Z,0
2017-02-12T07:09:24.354Z,0
2017-02-12T07:10:38.722Z,0
2017-02-12T07:11:53.069Z,0
2017-02-12T07:13:07.395Z,0
2017-02-12T07:14:20.461Z,0
2017-02-12T07:15:34.840Z,0
2017-02-12T07:16:49.187Z,0
2017-02-12T07:18:03.554Z,0
2017-02-12T07:19:17.916Z,0
2017-02-12T07:20:32.269Z,0
2017-02-12T07:21:46.624Z,0
2017-02-12T07:23:00.991Z,0
2017-02-12T07:24:14.763Z,0
2017-02-12T07:25:29.152Z,0
2017-02-12T07:26:43.528Z,0
2017-02-12T07:27:57.916Z,0
2017-02-12T07:29:12.259Z,0
2017-02-12T07:30:26.657Z,0
2017-02-12T07:31:41.041Z,0
2017-02-12T07:32:55.412Z,0
2017-02-12T07:34:09.148Z,0
2017-02-12T07:35:23.507Z,0
2017-02-12T07:36:37.873Z,0
2017-02-12T07:37:52.240Z,0
2017-02-12T07:39:06.604Z,0
2017-02-12T07:40:20.965Z,0
2017-02-12T07:41:35.322Z,0
2017-02-12T07:42:49.707Z,0
2017-02-12T07:44:04.043Z,0
2017-02-12T07:45:17.747Z,0
2017-02-12T07:46:32.098Z,0
2017-02-12T07:47:46.517Z,0
2017-02-12T07:49:00.902Z,0
2017-02-12T07:50:14.626Z,0
2017-02-12T07:51:29.039Z,0
2017-02-12T07:52:43.404Z,0
2017-02-12T07:53:57.758Z,0
2017-02-12T07:55:12.140Z,0
2017-02-12T07:56:26.503Z,0
2017-02-12T07:57:40.856Z,0
2017-02-12T07:58:55.207Z,0
2017-02-12T08:00:09.590Z,0
2017-02-12T08:01:23.951Z,0
2017-02-12T08:02:38.337Z,0
2017-02-12T08:03:52.669Z,0
2017-02-12T08:05:07.077Z,0
2017-02-12T08:06:21.451Z,0
2017-02-12T08:07:35.843Z,0
2017-02-12T08:08:50.192Z,0
2017-02-12T08:10:04.553Z,0
2017-02-12T08:11:18.932Z,0
2017-02-12T08:12:33.312Z,0
2017-02-12T08:13:47.725Z,0
2017-02-12T08:15:02.079Z,0
2017-02-12T08:16:15.127Z,0
2017-02-12T08:17:29.510Z,0
2017-02-12T08:18:43.935Z,0
2017-02-12T08:19:58.306Z,0
2017-02-12T08:21:12.660Z,0
2017-02-12T08:22:27.037Z,0
2017-02-12T08:23:41.390Z,0
2017-02-12T08:24:55.741Z,0
2017-02-12T08:26:10.095Z,4
2017-02-12T08:27:24.470Z,4
2017-02-12T08:28:38.849Z,0
2017-02-12T08:29:53.229Z,4
2017-02-12T08:31:07.601Z,4
2017-02-12T08:32:21.329Z,8
2017-02-12T08:33:35.712Z,12
2017-02-12T08:34:50.084Z,16
2017-02-12T08:36:04.462Z,24
2017-02-12T08:37:18.216Z,32
2017-02-12T08:38:32.547Z,44
2017-02-12T08:39:46.899Z,60
2017-02-12T08:41:01.298Z,76
2017-02-12T08:42:15.677Z,104
2017-02-12T08:43:30.109Z,136
2017-02-12T08:44:44.501Z,180
2017-02-12T08:45:58.849Z,232
2017-02-12T08:47:12.584Z,284
2017-02-12T08:48:26.963Z,352
2017-02-12T08:49:41.345Z,428
2017-02-12T08:50:55.717Z,516
2017-02-12T08:52:10.056Z,608
2017-02-12T08:53:24.406Z,712
2017-02-12T08:54:38.785Z,820
2017-02-12T08:55:53.181Z,948
2017-02-12T08:57:07.555Z,1084
2017-02-12T08:58:21.919Z,1244
2017-02-12T08:59:36.281Z,1420
2017-02-12T09:00:50.630Z,1560
2017-02-12T09:02:04.999Z,1724
2017-02-12T09:03:18.770Z,2044
2017-02-12T09:04:33.126Z,2344
2017-02-12T09:05:47.514Z,2508
2017-02-12T09:07:01.898Z,2908
2017-02-12T09:08:15.636Z,3340
2017-02-12T09:09:30.051Z,3780
2017-02-12T09:10:44.510Z,4224
2017-02-12T09:11:58.954Z,4644
2017-02-12T09:13:13.317Z,5012
2017-02-12T09:14:27.661Z,5444
2017-02-12T09:15:42.022Z,5936
2017-02-12T09:16:56.395Z,6448
2017-02-12T09:18:10.124Z,6960
2017-02-12T09:19:24.481Z,7496
2017-02-12T09:20:38.837Z,8096
2017-02-12T09:21:53.203Z,8680
2017-02-12T09:23:07.554Z,9312
2017-02-12T09:24:21.942Z,9908
2017-02-12T09:25:36.299Z,10412
2017-02-12T09:26:50.685Z,10444
2017-02-12T09:28:05.046Z,11308
2017-02-12T09:29:18.114Z,12180
2017-02-12T09:30:32.478Z,12700
2017-02-12T09:31:46.292Z,13460
2017-02-12T09:33:00.657Z,14144
2017-02-12T09:34:14.402Z,14912
2017-02-12T09:35:28.756Z,15552
2017-02-12T09:36:43.095Z,16384
2017-02-12T09:37:57.463Z,17120
2017-02-12T09:39:11.165Z,17600
2017-02-12T09:40:24.892Z,17984
2017-02-12T09:41:39.273Z,18784
2017-02-12T09:42:53.638Z,19232
2017-02-12T09:44:08.003Z,20256
2017-02-12T09:45:21.739Z,20544
2017-02-12T09:46:36.154Z,21792
2017-02-12T09:47:50.507Z,22144
2017-02-12T09:49:04.891Z,23744
2017-02-12T09:50:18.612Z,23040
2017-02-12T09:51:32.925Z,24704
2017-02-12T09:52:46.688Z,24640
2017-02-12T09:54:01.085Z,26368
2017-02-12T09:55:15.455Z,26432
2017-02-12T09:56:29.800Z,27200
2017-02-12T09:57:44.162Z,28480
2017-02-12T09:58:58.489Z,29312
2017-02-12T10:00:12.250Z,30592
2017-02-12T10:01:26.609Z,31680
2017-02-12T10:02:40.976Z,32064
2017-02-12T10:03:54.694Z,33280
2017-02-12T10:05:09.054Z,33600
2017-02-12T10:06:22.792Z,34816
2017-02-12T10:07:37.171Z,36192
2017-02-12T10:08:51.546Z,37152
2017-02-12T10:10:05.913Z,36832
2017-02-12T10:11:20.266Z,37472
2017-02-12T10:12:34.673Z,39392
2017-02-12T10:13:49.027Z,39424
2017-02-12T10:15:03.384Z,41472
2017-02-12T10:16:16.448Z,42176
2017-02-12T10:17:30.835Z,42912
2017-02-12T10:18:45.234Z,43680
2017-02-12T10:19:58.985Z,45376
2017-02-12T10:21:13.331Z,47104
2017-02-12T10:22:27.051Z,47872
2017-02-12T10:23:41.417Z,48192
2017-02-12T10:24:55.778Z,50176
2017-02-12T10:26:10.141Z,52960
2017-02-12T10:27:24.554Z,50976
2017-02-12T10:28:38.944Z,52192
2017-02-12T10:29:53.302Z,53472
2017-02-12T10:31:07.665Z,53824
2017-02-12T10:32:21.384Z,55808
2017-02-12T10:33:35.743Z,57792
2017-02-12T10:34:50.131Z,58144
2017-02-12T10:36:04.504Z,56704
2017-02-12T10:37:18.236Z,61248
2017-02-12T10:38:32.596Z,59712
2017-02-12T10:39:46.970Z,61728
2017-02-12T10:41:01.351Z,61088
2017-02-12T10:42:15.094Z,64992
2017-02-12T10:43:29.453Z,65184
2017-02-12T10:44:43.836Z,67392
2017-02-12T10:45:58.211Z,66816
2017-02-12T10:47:12.589Z,68320
2017-02-12T10:48:26.953Z,68992
2017-02-12T10:49:41.297Z,67808
2017-02-12T10:50:55.651Z,69664
2017-02-12T10:52:09.375Z,70304
2017-02-12T10:53:21.830Z,71552
2017-02-12T10:54:36.222Z,71328
2017-02-12T10:55:50.601Z,70528
2017-02-12T10:57:04.968Z,72864
2017-02-12T10:58:18.065Z,71648
2017-02-12T10:59:32.476Z,71456
2017-02-12T11:00:46.839Z,71456
2017-02-12T11:02:01.218Z,76832
2017-02-12T11:03:14.927Z,74784
2017-02-12T11:04:29.379Z,73024
2017-02-12T11:05:43.735Z,72448
2017-02-12T11:06:57.458Z,71776
2017-02-12T11:08:11.178Z,71488
2017-02-12T11:09:25.577Z,74880
2017-02-12T11:10:39.918Z,73056
2017-02-12T11:11:54.308Z,78112
2017-02-12T11:13:08.691Z,76224
2017-02-12T11:14:23.059Z,76864
2017-02-12T11:15:37.507Z,79008
2017-02-12T11:16:51.219Z,80608
2017-02-12T11:18:05.614Z,84832
2017-02-12T11:19:20.013Z,86432
2017-02-12T11:20:34.343Z,86496
2017-02-12T11:21:48.704Z,85696
2017-02-12T11:23:03.064Z,89952
2017-02-12T11:24:16.797Z,84160
2017-02-12T11:25:31.166Z,82432
2017-02-12T11:26:45.537Z,91360
2017-02-12T11:27:59.900Z,93632
2017-02-12T11:29:14.277Z,90624
2017-02-12T11:30:28.682Z,94144
2017-02-12T11:31:43.047Z,87456
2017-02-12T11:32:57.424Z,81696
2017-02-12T11:34:11.826Z,85216
2017-02-12T11:35:25.594Z,89856
2017-02-12T11:36:40.002Z,83456
2017-02-12T11:37:54.341Z,82016
2017-02-12T11:39:08.706Z,79328
2017-02-12T11:40:23.078Z,95456
2017-02-12T11:41:37.473Z,96128
2017-02-12T11:42:51.919Z,82144
2017-02-12T11:44:06.271Z,79136
2017-02-12T11:45:20.689Z,85504
2017-02-12T11:46:34.420Z,93856
2017-02-12T11:47:50.026Z,81056
2017-02-12T11:49:03.776Z,61760
2017-02-12T11:50:17.504Z,59232
2017-02-12T11:51:31.223Z,58336
2017-02-12T11:52:45.617Z,65888
2017-02-12T11:54:00.004Z,76000
2017-02-12T11:55:14.393Z,80160
2017-02-12T11:56:28.780Z,86432
2017-02-12T11:57:43.171Z,87008
2017-02-12T11:58:57.544Z,90272
2017-02-12T12:00:11.268Z,92096
2017-02-12T12:01:25.637Z,89472
2017-02-12T12:02:39.998Z,87328
2017-02-12T12:03:54.368Z,85760
2017-02-12T12:05:08.738Z,87392
2017-02-12T12:06:22.489Z,95200
2017-02-12T12:07:36.857Z,101248
2017-02-12T12:08:51.233Z,101760
2017-02-12T12:10:05.604Z,104544
2017-02-12T12:11:19.352Z,102304
2017-02-12T12:12:33.757Z,104864
2017-02-12T12:13:48.151Z,99936
2017-02-12T12:15:02.538Z,80160
2017-02-12T12:16:16.909Z,83200
2017-02-12T12:17:30.638Z,107136
2017-02-12T12:18:45.034Z,111776
2017-02-12T12:19:59.407Z,94528
2017-02-12T12:21:13.810Z,97824
2017-02-12T12:22:28.193Z,111136
2017-02-12T12:23:42.587Z,109504
2017-02-12T12:24:56.977Z,91840
2017-02-12T12:26:10.732Z,84768
2017-02-12T12:27:24.476Z,87136
2017-02-12T12:28:38.853Z,93568
2017-02-12T12:29:53.228Z,83296
2017-02-12T12:31:07.582Z,69184
2017-02-12T12:32:21.306Z,65824
2017-02-12T12:33:35.707Z,67424
2017-02-12T12:34:50.091Z,61792
2017-02-12T12:36:04.510Z,58112
2017-02-12T12:37:17.597Z,56448
2017-02-12T12:38:31.326Z,55072
2017-02-12T12:39:45.679Z,55328
2017-02-12T12:41:00.034Z,56896
2017-02-12T12:42:13.769Z,58944
2017-02-12T12:43:28.120Z,60864
2017-02-12T12:44:42.561Z,64672
2017-02-12T12:45:56.302Z,65952
2017-02-12T12:47:10.056Z,63680
2017-02-12T12:48:24.428Z,61376
2017-02-12T12:49:38.190Z,61536
2017-02-12T12:50:51.937Z,64032
2017-02-12T12:52:06.300Z,67680
2017-02-12T12:53:39.244Z,72096
2017-02-12T12:54:53.605Z,75968
2017-02-12T12:56:07.337Z,77888
2017-02-12T12:57:21.749Z,76928
2017-02-12T12:58:36.101Z,74400
2017-02-12T12:59:50.481Z,76000
2017-02-12T13:01:04.207Z,76480
2017-02-12T13:02:17.923Z,76608
2017-02-12T13:03:32.299Z,74816
2017-02-12T13:04:46.674Z,68288
2017-02-12T13:06:01.049Z,65472
2017-02-12T13:07:15.454Z,65728
2017-02-12T13:08:29.833Z,66656
2017-02-12T13:09:44.180Z,68512
2017-02-12T13:10:58.576Z,73824
2017-02-12T13:12:12.976Z,77152
2017-02-12T13:13:26.731Z,85920
2017-02-12T13:14:41.122Z,89568
2017-02-12T13:15:55.505Z,92608
2017-02-12T13:17:09.882Z,82688
2017-02-12T13:18:24.289Z,72096
2017-02-12T13:19:38.673Z,77984
2017-02-12T13:20:53.060Z,90624
2017-02-12T13:22:06.161Z,97344
2017-02-12T13:23:20.605Z,103232
2017-02-12T13:24:34.345Z,97344
2017-02-12T13:25:48.727Z,85280
2017-02-12T13:27:03.091Z,79232
2017-02-12T13:28:17.473Z,83648
2017-02-12T13:29:31.834Z,86080
2017-02-12T13:30:45.571Z,82304
2017-02-12T13:31:59.931Z,77600
2017-02-12T13:33:14.266Z,71488
2017-02-12T13:34:28.649Z,65856
2017-02-12T13:35:43.033Z,68800
2017-02-12T13:36:56.756Z,72320
2017-02-12T13:38:11.177Z,73440
2017-02-12T13:39:25.562Z,74112
2017-02-12T13:40:39.964Z,76576
2017-02-12T13:41:54.366Z,78656
2017-02-12T13:43:08.068Z,74912
2017-02-12T13:44:21.179Z,71776
2017-02-12T13:45:35.550Z,70656
2017-02-12T13:46:49.935Z,74048
2017-02-12T13:48:04.329Z,79008
2017-02-12T13:49:18.061Z,74976
2017-02-12T13:50:32.500Z,71776
2017-02-12T13:51:46.886Z,69248
2017-02-12T13:53:01.229Z,67424
2017-02-12T13:54:14.977Z,64384
2017-02-12T13:55:29.360Z,65088
2017-02-12T13:56:43.754Z,66272
2017-02-12T13:57:58.157Z,67520
2017-02-12T13:59:12.544Z,73920
2017-02-12T14:00:26.248Z,75456
2017-02-12T14:01:40.633Z,72896
2017-02-12T14:02:54.990Z,69728
2017-02-12T14:04:09.382Z,68928
2017-02-12T14:05:23.801Z,68512
2017-02-12T14:06:38.199Z,68160
2017-02-12T14:07:52.605Z,73408
2017-02-12T14:09:06.977Z,76704
2017-02-12T14:10:21.363Z,75392
2017-02-12T14:11:35.119Z,76000
2017-02-12T14:12:49.492Z,83584
2017-02-12T14:14:03.868Z,90368
2017-02-12T14:15:18.237Z,90560
2017-02-12T14:16:32.633Z,85184
2017-02-12T14:17:45.727Z,85248
2017-02-12T14:19:00.160Z,80480
2017-02-12T14:20:14.530Z,74976
2017-02-12T14:21:28.908Z,72768
2017-02-12T14:22:43.277Z,71968
2017-02-12T14:23:57.716Z,76256
2017-02-12T14:25:11.432Z,80864
2017-02-12T14:26:25.787Z,82176
2017-02-12T14:27:40.164Z,80256
2017-02-12T14:28:54.534Z,81408
2017-02-12T14:30:08.362Z,78976
2017-02-12T14:31:22.737Z,81440
2017-02-12T14:32:37.171Z,94336
2017-02-12T14:33:51.520Z,107840
2017-02-12T14:35:05.905Z,106208
2017-02-12T14:36:20.314Z,97248
2017-02-12T14:37:34.697Z,97280
2017-02-12T14:38:49.057Z,94880
2017-02-12T14:40:03.454Z,96192
2017-02-12T14:41:17.844Z,104000
2017-02-12T14:42:32.241Z,109728
2017-02-12T14:43:46.620Z,108736
2017-02-12T14:45:01.006Z,108288
2017-02-12T14:46:14.768Z,106592
2017-02-12T14:47:29.211Z,105536
2017-02-12T14:48:43.569Z,110272
2017-02-12T14:49:57.937Z,107744
2017-02-12T14:51:12.333Z,98112
2017-02-12T14:52:26.752Z,93088
2017-02-12T14:53:41.152Z,100128
2017-02-12T14:54:55.574Z,104768
2017-02-12T14:56:09.970Z,102496
2017-02-12T14:57:24.329Z,100416
2017-02-12T14:58:38.666Z,98976
2017-02-12T14:59:52.404Z,97408
2017-02-12T15:01:06.790Z,99520
2017-02-12T15:02:21.177Z,108896
2017-02-12T15:03:35.532Z,111328
2017-02-12T15:04:49.891Z,109120
2017-02-12T15:06:04.300Z,113920
2017-02-12T15:07:18.722Z,121344
2017-02-12T15:08:33.127Z,118688
2017-02-12T15:09:47.521Z,113920
2017-02-12T15:11:01.952Z,116320
2017-02-12T15:12:16.323Z,102880
2017-02-12T15:13:30.691Z,21920
2017-02-12T15:14:45.095Z,27776
2017-02-12T15:15:58.223Z,33600
2017-02-12T15:17:11.932Z,112192
2017-02-12T15:18:26.352Z,120096
2017-02-12T15:19:40.790Z,127040
2017-02-12T15:20:55.157Z,131808
2017-02-12T15:22:09.521Z,133248
2017-02-12T15:23:23.878Z,123712
2017-02-12T15:24:37.597Z,24864
2017-02-12T15:25:52.027Z,124032
2017-02-12T15:27:05.809Z,124544
2017-02-12T15:28:19.530Z,124480
2017-02-12T15:29:33.913Z,113728
2017-02-12T15:30:48.280Z,101856
2017-02-12T15:32:02.660Z,105120
2017-02-12T15:33:16.392Z,106496
2017-02-12T15:34:30.758Z,104832
2017-02-12T15:35:45.138Z,27136
2017-02-12T15:36:59.505Z,22816
2017-02-12T15:38:13.907Z,26752
2017-02-12T15:39:28.277Z,32256
2017-02-12T15:40:42.024Z,128512
2017-02-12T15:41:56.368Z,32704
2017-02-12T15:43:10.772Z,31424
2017-02-12T15:44:25.163Z,118496
2017-02-12T15:45:39.529Z,131360
2017-02-12T15:46:53.892Z,134816
2017-02-12T15:48:07.622Z,144992
2017-02-12T15:49:21.322Z,149536
2017-02-12T15:50:35.051Z,152000
2017-02-12T15:51:49.398Z,143136
2017-02-12T15:53:03.798Z,131360
2017-02-12T15:54:17.581Z,29376
2017-02-12T15:55:31.955Z,30112
2017-02-12T15:56:46.342Z,33408
2017-02-12T15:58:00.725Z,34112
2017-02-12T15:59:15.100Z,129568
2017-02-12T16:00:29.538Z,128480
2017-02-12T16:01:43.880Z,130464
2017-02-12T16:02:58.267Z,136352
2017-02-12T16:04:12.650Z,134240
2017-02-12T16:05:26.382Z,126848
2017-02-12T16:06:40.764Z,128992
2017-02-12T16:07:55.121Z,31808
2017-02-12T16:09:09.573Z,31968
2017-02-12T16:10:23.996Z,32480
2017-02-12T16:11:37.763Z,36224
2017-02-12T16:12:52.159Z,38432
2017-02-12T16:14:06.535Z,54368
2017-02-12T16:15:20.878Z,137824
2017-02-12T16:16:35.264Z,133632
2017-02-12T16:17:49.627Z,136448
2017-02-12T16:19:04.046Z,44896
2017-02-12T16:20:18.414Z,38304
2017-02-12T16:21:32.785Z,36352
2017-02-12T16:22:47.148Z,36160
2017-02-12T16:24:01.483Z,33248
2017-02-12T16:25:15.218Z,34656
2017-02-12T16:26:29.588Z,43424
2017-02-12T16:27:43.962Z,144000
2017-02-12T16:28:58.367Z,151712
2017-02-12T16:30:12.770Z,44064
2017-02-12T16:31:27.132Z,33376
2017-02-12T16:32:41.506Z,34656
2017-02-12T16:33:55.867Z,36224
2017-02-12T16:35:10.281Z,38336
2017-02-12T16:36:23.969Z,87552
2017-02-12T16:37:38.353Z,35264
2017-02-12T16:38:52.786Z,34304
2017-02-12T16:40:07.193Z,35008
2017-02-12T16:41:21.566Z,50336
2017-02-12T16:42:35.944Z,33280
2017-02-12T16:43:49.667Z,34144
2017-02-12T16:45:03.425Z,95040
2017-02-12T16:46:17.819Z,157504
2017-02-12T16:47:32.173Z,35168
2017-02-12T16:48:45.887Z,33920
2017-02-12T16:50:00.318Z,109216
2017-02-12T16:51:14.730Z,153472
2017-02-12T16:52:29.133Z,28512
2017-02-12T16:53:43.525Z,27328
2017-02-12T16:54:57.307Z,26784
2017-02-12T16:56:11.047Z,26144
2017-02-12T16:57:25.426Z,24576
2017-02-12T16:58:39.125Z,23520
2017-02-12T16:59:53.504Z,23456
2017-02-12T17:01:07.873Z,23424
2017-02-12T17:02:21.630Z,23360
2017-02-12T17:03:35.360Z,22336